Main page
Satellite images 10-day forecastsClimateMarine weather Cyclones Lightning AirportsFAQ Newsletter About
Weather : Europe Africa North America South America Asia Australia-Oceania Others
Languages Contact

Bucharest, Romania

Henri Coandă International Airport

latitude: 44-33N, longitude: 026-06E, elevation: 95 m


METAR: LROP 040330Z 04004KT 9000 NSC 20/19 Q1013 NOSIG
TAF: LROP 032300Z 0400/0424 VRB04KT CAVOK TEMPO 0400/0405 3000 BR

Time: 06:43 (03:43 UTC)

Current weather observation

The report was made 13 minutes ago, at 03:30 UTC
Wind 4 kt from the Northeast
Temperature 20°C
Humidity 94%
Pressure 1013 hPa
Visibility: 9000 m

Change units

Forecast

The report was made 4 hours and 43 minutes ago, at 23:00 UTC
Forecast valid from 04 at 00 UTC to 04 at 24 UTC
Wind 4 kt from variable directions
Visibility 10 km or more
no clouds below 1500 m and no cumulonimbus
Temporary
from 04 at 00 UTC to 04 at 05 UTC
Visibility: 3000 m
mist
The information on this site is subject to a disclaimer
Weather : Europe Africa North America South America Asia Australia-Oceania Others
Satellite images 10-day forecastsClimateMarine weather Cyclones Lightning AirportsFAQ Languages Contact Newsletter About